Time,TemperatureF,DewpointF,PressureIn,WindDirection,WindDirectionDegrees,WindSpeedMPH,WindSpeedGustMPH,Humidity,HourlyPrecipIn,Conditions,Clouds,dailyrainin,SoftwareType,DateUTC
2013-07-27 00:00:00,81.0,61.0,-100.00,SSE,152,2.0,-999.0,49,0.00,,,-99.99,,2013-07-27 07:00:00,
2013-07-27 00:34:00,81.0,61.0,-100.00,SSE,152,2.0,-999.0,49,0.00,,,-99.99,,2013-07-27 07:34:00,
2013-07-27 00:44:00,81.0,61.0,-100.00,SSE,152,2.0,-999.0,49,0.00,,,-99.99,,2013-07-27 07:44:00,
2013-07-27 00:52:00,81.0,61.0,-100.00,SSE,152,2.0,-999.0,49,0.00,,,-99.99,,2013-07-27 07:52:00,
2013-07-27 01:00:00,80.0,60.0,-100.00,SSE,160,2.0,-999.0,50,0.00,,,-99.99,,2013-07-27 08:00:00,
2013-07-27 01:32:00,80.0,60.0,-100.00,SSE,160,2.0,-999.0,50,0.00,,,-99.99,,2013-07-27 08:32:00,
2013-07-27 01:53:00,80.0,60.0,-100.00,SSE,160,2.0,-999.0,50,0.00,,,-99.99,,2013-07-27 08:53:00,
2013-07-27 02:00:00,79.0,59.0,-100.00,SSE,163,2.0,-999.0,49,0.00,,,-99.99,,2013-07-27 09:00:00,
2013-07-27 02:33:00,79.0,59.0,-100.00,SSE,163,2.0,-999.0,49,0.00,,,-99.99,,2013-07-27 09:33:00,
2013-07-27 02:52:00,79.0,59.0,-100.00,SSE,163,2.0,-999.0,49,0.00,,,-99.99,,2013-07-27 09:52:00,
2013-07-27 03:00:00,80.0,60.0,-100.00,NW,311,2.0,-999.0,50,0.00,,,-99.99,,2013-07-27 10:00:00,
2013-07-27 03:32:00,80.0,60.0,-100.00,NW,311,2.0,-999.0,50,0.00,,,-99.99,,2013-07-27 10:32:00,
2013-07-27 03:52:00,80.0,60.0,-100.00,NW,311,2.0,-999.0,50,0.00,,,-99.99,,2013-07-27 10:52:00,
2013-07-27 04:00:00,79.0,61.0,-100.00,SSW,202,3.0,-999.0,53,0.00,,,-99.99,,2013-07-27 11:00:00,
2013-07-27 04:32:00,79.0,61.0,-100.00,SSW,202,3.0,-999.0,53,0.00,,,-99.99,,2013-07-27 11:32:00,
2013-07-27 04:44:00,79.0,61.0,-100.00,SSW,202,3.0,-999.0,53,0.00,,,-99.99,,2013-07-27 11:44:00,
2013-07-27 04:52:00,79.0,61.0,-100.00,SSW,202,3.0,-999.0,53,0.00,,,-99.99,,2013-07-27 11:52:00,
2013-07-27 05:00:00,78.0,61.0,-100.00,South,191,3.0,-999.0,56,0.00,,,-99.99,,2013-07-27 12:00:00,
2013-07-27 05:33:00,78.0,61.0,-100.00,South,191,3.0,-999.0,56,0.00,,,-99.99,,2013-07-27 12:33:00,
2013-07-27 05:52:00,78.0,61.0,-100.00,South,191,3.0,-999.0,56,0.00,,,-99.99,,2013-07-27 12:52:00,
2013-07-27 06:00:00,76.0,59.0,-100.00,SW,225,4.0,-999.0,54,0.00,,,-99.99,,2013-07-27 13:00:00,
2013-07-27 06:53:00,76.0,59.0,-100.00,SW,225,4.0,-999.0,54,0.00,,,-99.99,,2013-07-27 13:53:00,
2013-07-27 07:00:00,75.0,58.0,-100.00,SSW,205,2.0,-999.0,54,0.00,,,-99.99,,2013-07-27 14:00:00,
2013-07-27 07:33:00,75.0,58.0,-100.00,SSW,205,2.0,-999.0,54,0.00,,,-99.99,,2013-07-27 14:33:00,
2013-07-27 07:54:00,75.0,58.0,-100.00,SSW,205,2.0,-999.0,54,0.00,,,-99.99,,2013-07-27 14:54:00,
2013-07-27 08:00:00,79.0,57.0,-100.00,SSE,158,4.0,-999.0,47,0.00,,,-99.99,,2013-07-27 15:00:00,
2013-07-27 08:33:00,79.0,57.0,-100.00,SSE,158,4.0,-999.0,47,0.00,,,-99.99,,2013-07-27 15:33:00,
2013-07-27 08:44:00,79.0,57.0,-100.00,SSE,158,4.0,-999.0,47,0.00,,,-99.99,,2013-07-27 15:44:00,
2013-07-27 08:53:00,79.0,57.0,-100.00,SSE,158,4.0,-999.0,47,0.00,,,-99.99,,2013-07-27 15:53:00,
2013-07-27 09:00:00,80.0,54.0,-100.00,SW,218,4.0,-999.0,41,0.00,,,-99.99,,2013-07-27 16:00:00,
2013-07-27 09:54:00,80.0,54.0,-100.00,SW,218,4.0,-999.0,41,0.00,,,-99.99,,2013-07-27 16:54:00,
2013-07-27 10:00:00,82.0,53.0,-100.00,South,190,2.0,-999.0,37,0.00,,,-99.99,,2013-07-27 17:00:00,
2013-07-27 10:32:00,82.0,53.0,-100.00,South,190,2.0,-999.0,37,0.00,,,-99.99,,2013-07-27 17:32:00,
2013-07-27 10:43:00,82.0,53.0,-100.00,South,190,2.0,-999.0,37,0.00,,,-99.99,,2013-07-27 17:43:00,
2013-07-27 10:53:00,82.0,53.0,-100.00,South,190,2.0,-999.0,37,0.00,,,-99.99,,2013-07-27 17:53:00,
2013-07-27 11:00:00,86.0,52.0,-100.00,West,260,5.0,-999.0,31,0.00,,,-99.99,,2013-07-27 18:00:00,
2013-07-27 11:53:00,86.0,52.0,-100.00,West,260,5.0,-999.0,31,0.00,,,-99.99,,2013-07-27 18:53:00,
2013-07-27 12:00:00,89.0,52.0,-100.00,West,269,7.0,-999.0,28,0.00,,,-99.99,,2013-07-27 19:00:00,
2013-07-27 12:32:00,89.0,52.0,-100.00,West,269,7.0,-999.0,28,0.00,,,-99.99,,2013-07-27 19:32:00,
2013-07-27 12:53:00,89.0,52.0,-100.00,West,269,7.0,-999.0,28,0.00,,,-99.99,,2013-07-27 19:53:00,
2013-07-27 13:00:00,92.0,54.0,-100.00,WNW,286,12.0,-999.0,27,0.00,,,-99.99,,2013-07-27 20:00:00,
2013-07-27 13:32:00,92.0,54.0,-100.00,WNW,286,12.0,-999.0,27,0.00,,,-99.99,,2013-07-27 20:32:00,
2013-07-27 13:43:00,92.0,54.0,-100.00,WNW,286,12.0,-999.0,27,0.00,,,-99.99,,2013-07-27 20:43:00,
2013-07-27 14:00:00,96.0,54.0,-100.00,NW,324,9.0,-999.0,24,0.00,,,-99.99,,2013-07-27 21:00:00,
2013-07-27 14:33:00,96.0,54.0,-100.00,NW,324,9.0,-999.0,24,0.00,,,-99.99,,2013-07-27 21:33:00,
2013-07-27 14:43:00,96.0,54.0,-100.00,NW,324,9.0,-999.0,24,0.00,,,-99.99,,2013-07-27 21:43:00,
2013-07-27 15:00:00,97.0,52.0,-100.00,North,349,4.0,-999.0,22,0.00,,,-99.99,,2013-07-27 22:00:00,
2013-07-27 15:33:00,97.0,52.0,-100.00,North,349,4.0,-999.0,22,0.00,,,-99.99,,2013-07-27 22:33:00,
2013-07-27 15:43:00,97.0,52.0,-100.00,North,349,4.0,-999.0,22,0.00,,,-99.99,,2013-07-27 22:43:00,
2013-07-27 15:53:00,97.0,52.0,-100.00,North,349,4.0,-999.0,22,0.00,,,-99.99,,2013-07-27 22:53:00,
2013-07-27 16:00:00,98.0,50.0,-100.00,North,353,6.0,-999.0,19,0.00,,,-99.99,,2013-07-27 23:00:00,
2013-07-27 16:32:00,98.0,50.0,-100.00,North,353,6.0,-999.0,19,0.00,,,-99.99,,2013-07-27 23:32:00,
2013-07-27 16:44:00,98.0,50.0,-100.00,North,353,6.0,-999.0,19,0.00,,,-99.99,,2013-07-27 23:44:00,
2013-07-27 16:53:00,98.0,50.0,-100.00,North,353,6.0,-999.0,19,0.00,,,-99.99,,2013-07-27 23:53:00,
2013-07-27 17:00:00,99.0,51.0,-100.00,NW,323,14.0,-999.0,20,0.00,,,-99.99,,2013-07-28 00:00:00,
2013-07-27 17:32:00,99.0,51.0,-100.00,NW,323,14.0,-999.0,20,0.00,,,-99.99,,2013-07-28 00:32:00,
2013-07-27 17:44:00,99.0,51.0,-100.00,NW,323,14.0,-999.0,20,0.00,,,-99.99,,2013-07-28 00:44:00,
2013-07-27 17:53:00,99.0,51.0,-100.00,NW,323,14.0,-999.0,20,0.00,,,-99.99,,2013-07-28 00:53:00,
2013-07-27 18:00:00,99.0,52.0,-100.00,NNW,331,10.0,-999.0,20,0.00,,,-99.99,,2013-07-28 01:00:00,
2013-07-27 18:32:00,99.0,52.0,-100.00,NNW,331,10.0,-999.0,20,0.00,,,-99.99,,2013-07-28 01:32:00,
2013-07-27 18:43:00,99.0,52.0,-100.00,NNW,331,10.0,-999.0,20,0.00,,,-99.99,,2013-07-28 01:43:00,
2013-07-27 18:53:00,99.0,52.0,-100.00,NNW,331,10.0,-999.0,20,0.00,,,-99.99,,2013-07-28 01:53:00,
2013-07-27 19:00:00,98.0,54.0,-100.00,WNW,303,7.0,-999.0,23,0.00,,,-99.99,,2013-07-28 02:00:00,
2013-07-27 19:32:00,98.0,54.0,-100.00,WNW,303,7.0,-999.0,23,0.00,,,-99.99,,2013-07-28 02:32:00,
2013-07-27 19:42:00,98.0,54.0,-100.00,WNW,303,7.0,-999.0,23,0.00,,,-99.99,,2013-07-28 02:42:00,
2013-07-27 19:53:00,98.0,54.0,-100.00,WNW,303,7.0,-999.0,23,0.00,,,-99.99,,2013-07-28 02:53:00,
2013-07-27 20:00:00,94.0,55.0,-100.00,NW,310,6.0,-999.0,26,0.00,,,-99.99,,2013-07-28 03:00:00,
2013-07-27 20:32:00,94.0,55.0,-100.00,NW,310,6.0,-999.0,26,0.00,,,-99.99,,2013-07-28 03:32:00,
2013-07-27 20:53:00,94.0,55.0,-100.00,NW,310,6.0,-999.0,26,0.00,,,-99.99,,2013-07-28 03:53:00,
2013-07-27 21:00:00,90.0,56.0,-100.00,NNW,339,5.0,-999.0,31,0.00,,,-99.99,,2013-07-28 04:00:00,
2013-07-27 21:53:00,90.0,56.0,-100.00,NNW,339,5.0,-999.0,31,0.00,,,-99.99,,2013-07-28 04:53:00,
2013-07-27 22:00:00,89.0,55.0,-100.00,West,277,4.0,-999.0,32,0.00,,,-99.99,,2013-07-28 05:00:00,
2013-07-27 22:32:00,89.0,55.0,-100.00,West,277,4.0,-999.0,32,0.00,,,-99.99,,2013-07-28 05:32:00,
2013-07-27 22:53:00,89.0,55.0,-100.00,West,277,4.0,-999.0,32,0.00,,,-99.99,,2013-07-28 05:53:00,
2013-07-27 23:00:00,82.0,58.0,-100.00,SSW,205,4.0,-999.0,43,0.00,,,-99.99,,2013-07-28 06:00:00,
2013-07-27 23:32:00,82.0,58.0,-100.00,SSW,205,4.0,-999.0,43,0.00,,,-99.99,,2013-07-28 06:32:00,
2013-07-27 23:43:00,82.0,58.0,-100.00,SSW,205,4.0,-999.0,43,0.00,,,-99.99,,2013-07-28 06:43:00,
2013-07-27 23:52:00,82.0,58.0,-100.00,SSW,205,4.0,-999.0,43,0.00,,,-99.99,,2013-07-28 06:52:00,